Time;durP1;ratioP1;P1;durP2;ratioP2;P2;SDS_P1;SDS_P2;PMS_P1;PMS_P2;Temp;Humidity;BMP_temperature;BMP_pressure;BME280_temperature;BME280_humidity;BME280_pressure;Samples;Min_cycle;Max_cycle;Signal;HPM_P1;HPM_P2
2021/07/27 00:00:44;;;;;;;13.77;9.93;;;22.70;99.90;;;;;;5047129;28;20206;-72
2021/07/27 00:03:11;;;;;;;12.05;9.30;;;22.60;99.90;;;;;;5051226;28;20316;-74
2021/07/27 00:05:38;;;;;;;10.57;8.60;;;22.60;99.90;;;;;;5050484;28;20239;-73
2021/07/27 00:08:07;;;;;;;8.23;7.43;;;22.60;99.90;;;;;;5048220;28;20225;-73
2021/07/27 00:10:35;;;;;;;11.40;8.43;;;22.60;99.90;;;;;;5051220;28;20196;-73
2021/07/27 00:13:02;;;;;;;10.95;8.38;;;22.60;99.90;;;;;;5045118;28;20640;-73
2021/07/27 00:15:30;;;;;;;8.25;7.43;;;22.60;99.90;;;;;;5050974;28;20194;-73
2021/07/27 00:17:57;;;;;;;8.48;7.68;;;22.50;99.90;;;;;;5049304;28;20229;-73
2021/07/27 00:20:25;;;;;;;9.50;8.48;;;22.50;99.90;;;;;;5050930;28;20205;-73
2021/07/27 00:22:51;;;;;;;8.98;8.07;;;22.50;99.90;;;;;;5048926;28;20202;-73
2021/07/27 00:25:19;;;;;;;8.57;7.78;;;22.50;99.90;;;;;;5043814;28;20313;-73
2021/07/27 00:27:46;;;;;;;12.00;9.40;;;22.50;99.90;;;;;;5050940;28;20228;-73
2021/07/27 00:30:13;;;;;;;9.27;8.32;;;22.50;99.90;;;;;;5044868;28;20202;-73
2021/07/27 00:32:44;;;;;;;8.80;7.90;;;22.40;99.90;;;;;;5044492;28;20217;-73
2021/07/27 00:35:13;;;;;;;9.85;8.85;;;22.40;99.90;;;;;;5044154;28;20236;-73
2021/07/27 00:37:43;;;;;;;8.80;7.95;;;22.40;99.90;;;;;;5048153;28;20381;-73
2021/07/27 00:40:11;;;;;;;10.23;7.68;;;22.40;99.90;;;;;;5049274;28;20580;-73
2021/07/27 00:42:45;;;;;;;12.35;8.90;;;22.40;99.90;;;;;;5040777;28;20236;-73
2021/07/27 00:45:13;;;;;;;10.05;8.30;;;22.30;99.90;;;;;;5047279;28;20678;-73
2021/07/27 00:47:42;;;;;;;10.52;8.73;;;22.30;99.90;;;;;;5046802;28;20200;-73
2021/07/27 00:50:10;;;;;;;16.25;9.18;;;22.30;99.90;;;;;;5047898;28;20193;-73
2021/07/27 00:52:39;;;;;;;10.50;8.90;;;22.40;99.90;;;;;;5039109;28;20213;-73
2021/07/27 00:55:06;;;;;;;10.48;9.38;;;22.30;99.90;;;;;;5050690;28;20222;-73
2021/07/27 00:57:33;;;;;;;18.17;9.52;;;22.30;99.90;;;;;;5050148;28;20218;-73
2021/07/27 01:00:00;;;;;;;12.55;10.38;;;22.30;99.90;;;;;;5050378;28;20194;-73
2021/07/27 01:02:30;;;;;;;12.80;10.68;;;22.30;99.90;;;;;;5049176;28;20208;-73
2021/07/27 01:04:59;;;;;;;12.85;10.10;;;22.30;99.90;;;;;;5050231;28;20342;-73
2021/07/27 01:07:26;;;;;;;8.85;8.05;;;22.30;99.90;;;;;;5047721;28;20190;-73
2021/07/27 01:09:53;;;;;;;11.27;9.82;;;22.20;99.90;;;;;;5074206;28;20339;-73
2021/07/27 01:12:20;;;;;;;10.00;9.00;;;22.20;99.90;;;;;;5041683;28;20246;-73
2021/07/27 01:14:46;;;;;;;13.18;10.40;;;22.20;99.90;;;;;;5050468;28;20218;-73
2021/07/27 01:17:13;;;;;;;11.05;9.65;;;22.20;99.90;;;;;;5047533;28;20214;-73
2021/07/27 01:19:52;;;;;;;12.95;9.93;;;22.20;99.90;;;;;;5049856;28;20202;-73
2021/07/27 01:42:07;;;;;;;9.63;8.50;;;22.10;99.90;;;;;;5125757;27;20554;-66
2021/07/27 01:44:42;;;;;;;10.13;8.68;;;22.10;99.90;;;;;;5125648;27;20202;-66
2021/07/27 01:47:11;;;;;;;10.05;8.98;;;22.10;99.90;;;;;;5119613;27;20267;-67
2021/07/27 01:49:38;;;;;;;9.73;8.70;;;22.10;99.90;;;;;;5117155;28;20282;-67
2021/07/27 01:52:09;;;;;;;10.73;9.63;;;22.10;99.90;;;;;;5120364;28;20195;-66
2021/07/27 01:54:52;;;;;;;10.38;8.75;;;22.10;99.90;;;;;;5120516;28;20191;-66
2021/07/27 01:57:20;;;;;;;10.05;8.57;;;22.10;99.90;;;;;;5112888;28;20234;-67
2021/07/27 01:59:50;;;;;;;10.80;8.93;;;22.10;99.90;;;;;;5100791;28;21032;-68
2021/07/27 02:02:16;;;;;;;8.88;7.97;;;22.10;99.90;;;;;;5104716;28;20288;-67
2021/07/27 02:04:43;;;;;;;11.00;8.38;;;22.10;99.90;;;;;;5118811;27;20199;-68
2021/07/27 02:07:10;;;;;;;9.90;8.80;;;22.10;99.90;;;;;;5108218;28;20208;-67
2021/07/27 02:09:39;;;;;;;10.30;9.18;;;22.10;99.90;;;;;;5112983;28;20660;-67
2021/07/27 02:12:12;;;;;;;10.15;8.93;;;22.10;99.90;;;;;;5120205;28;20283;-67
2021/07/27 02:17:21;;;;;;;10.60;9.15;;;22.10;99.90;;;;;;5117213;27;20206;-68
2021/07/27 02:19:48;;;;;;;10.45;9.05;;;22.10;99.90;;;;;;5115496;28;20287;-67
2021/07/27 02:22:15;;;;;;;13.60;9.27;;;22.10;99.90;;;;;;5120488;27;20203;-67
2021/07/27 02:24:42;;;;;;;9.93;9.02;;;22.10;99.90;;;;;;5116309;28;20268;-67
2021/07/27 02:27:09;;;;;;;11.48;9.00;;;22.10;99.90;;;;;;5108028;27;20200;-68
2021/07/27 02:29:36;;;;;;;9.93;8.93;;;22.10;99.90;;;;;;5115239;27;20718;-67
2021/07/27 02:32:05;;;;;;;13.05;9.90;;;22.10;99.90;;;;;;5113541;28;20290;-68
2021/07/27 02:34:32;;;;;;;13.80;10.27;;;22.10;99.90;;;;;;5113999;28;20233;-67
2021/07/27 02:37:00;;;;;;;12.07;9.20;;;22.10;99.90;;;;;;5106621;28;20193;-67
2021/07/27 02:39:27;;;;;;;9.95;8.93;;;22.10;99.90;;;;;;5080704;28;20200;-67
2021/07/27 02:41:54;;;;;;;10.30;9.25;;;22.10;99.90;;;;;;5119516;28;20231;-67
2021/07/27 02:44:21;;;;;;;9.82;8.88;;;22.20;99.90;;;;;;5123963;27;20210;-68
2021/07/27 02:46:48;;;;;;;8.60;7.80;;;22.20;99.90;;;;;;5114096;28;20203;-67
2021/07/27 02:49:16;;;;;;;10.13;9.10;;;22.30;99.90;;;;;;5121206;27;20184;-67
2021/07/27 02:51:47;;;;;;;9.82;8.75;;;22.30;99.90;;;;;;5112025;28;20193;-68
2021/07/27 02:54:14;;;;;;;11.38;9.10;;;22.30;99.90;;;;;;5107157;28;20671;-68
2021/07/27 02:56:42;;;;;;;11.00;9.70;;;22.30;99.90;;;;;;5102227;28;20201;-68
2021/07/27 02:59:08;;;;;;;9.85;8.68;;;22.30;99.90;;;;;;5107015;28;20192;-67
2021/07/27 03:01:35;;;;;;;9.32;8.43;;;22.30;99.90;;;;;;5093256;28;20212;-67
2021/07/27 03:04:02;;;;;;;9.57;8.65;;;22.20;99.90;;;;;;5088378;28;20203;-68
2021/07/27 03:06:31;;;;;;;13.63;9.93;;;22.20;99.90;;;;;;5098405;28;20215;-67
2021/07/27 03:09:14;;;;;;;10.85;9.57;;;22.20;99.90;;;;;;5104930;28;20204;-67
2021/07/27 03:11:41;;;;;;;10.90;9.75;;;22.10;99.90;;;;;;5099448;28;20339;-68
2021/07/27 03:14:08;;;;;;;11.68;9.60;;;22.20;99.90;;;;;;5099731;28;20204;-67
2021/07/27 03:16:35;;;;;;;11.02;9.65;;;22.20;99.90;;;;;;5100682;28;20214;-67
2021/07/27 03:19:02;;;;;;;11.25;10.05;;;22.20;99.90;;;;;;5098901;28;20200;-67
2021/07/27 03:21:30;;;;;;;12.85;10.20;;;22.20;99.90;;;;;;5098188;28;20235;-67
2021/07/27 03:23:57;;;;;;;15.40;10.10;;;22.20;99.90;;;;;;5098608;28;20289;-67
2021/07/27 03:26:25;;;;;;;12.38;10.27;;;22.20;99.90;;;;;;5088128;28;20254;-67
2021/07/27 03:28:52;;;;;;;10.73;9.63;;;22.10;99.90;;;;;;5097898;28;20224;-67
2021/07/27 03:31:19;;;;;;;12.05;9.75;;;22.20;99.90;;;;;;5097107;28;20640;-68
2021/07/27 03:33:46;;;;;;;10.35;8.73;;;22.20;99.90;;;;;;5079704;28;20237;-67
2021/07/27 03:36:13;;;;;;;9.48;8.40;;;22.20;99.90;;;;;;5096095;28;20258;-68
2021/07/27 03:38:41;;;;;;;14.07;10.18;;;22.20;99.90;;;;;;5082858;28;20192;-68
2021/07/27 03:41:09;;;;;;;11.70;10.23;;;22.20;99.90;;;;;;5099748;28;20231;-67
2021/07/27 03:43:37;;;;;;;9.13;8.25;;;22.20;99.90;;;;;;5108350;28;20196;-68
2021/07/27 03:46:05;;;;;;;10.45;9.15;;;22.20;99.90;;;;;;5114670;27;20207;-68
2021/07/27 03:48:32;;;;;;;12.23;8.90;;;22.20;99.90;;;;;;5108007;28;20212;-68
2021/07/27 03:50:59;;;;;;;10.80;9.45;;;22.20;99.90;;;;;;5106971;28;20682;-66
2021/07/27 03:53:25;;;;;;;11.85;9.45;;;22.20;99.90;;;;;;5103454;28;20196;-66
2021/07/27 03:55:54;;;;;;;10.55;9.25;;;22.30;99.90;;;;;;5088551;28;20215;-68
2021/07/27 03:58:21;;;;;;;11.45;9.90;;;22.20;99.90;;;;;;5085211;28;20209;-68
2021/07/27 04:00:48;;;;;;;12.05;10.65;;;22.10;99.90;;;;;;5095395;28;20693;-68
2021/07/27 04:03:15;;;;;;;10.73;9.32;;;22.10;99.90;;;;;;5094802;28;20197;-68
2021/07/27 04:05:43;;;;;;;13.90;10.27;;;22.10;99.90;;;;;;5104221;28;20203;-68
2021/07/27 04:08:10;;;;;;;12.32;10.90;;;22.10;99.90;;;;;;5079941;28;20257;-68
2021/07/27 04:10:37;;;;;;;12.75;10.60;;;22.10;99.90;;;;;;5103714;28;20215;-66
2021/07/27 04:13:05;;;;;;;11.75;9.57;;;22.10;99.90;;;;;;5098242;28;20272;-67
2021/07/27 04:15:42;;;;;;;16.10;9.65;;;22.10;99.90;;;;;;5103861;28;20249;-67
2021/07/27 04:18:09;;;;;;;11.75;10.55;;;22.00;99.90;;;;;;5095363;28;20188;-67
2021/07/27 04:20:36;;;;;;;10.80;9.60;;;22.10;99.90;;;;;;5095873;28;20196;-67
2021/07/27 04:23:03;;;;;;;9.75;8.75;;;22.10;99.90;;;;;;5077921;28;20322;-67
2021/07/27 04:25:31;;;;;;;9.57;8.68;;;22.10;99.90;;;;;;5092046;28;20198;-67
2021/07/27 04:27:58;;;;;;;10.20;8.27;;;22.10;99.90;;;;;;5084771;28;20200;-67
2021/07/27 04:30:26;;;;;;;7.35;6.75;;;22.20;99.90;;;;;;5097540;28;20671;-67
2021/07/27 04:32:53;;;;;;;9.25;8.13;;;22.20;99.90;;;;;;5077874;28;20229;-67
2021/07/27 04:35:20;;;;;;;10.60;8.95;;;22.30;99.90;;;;;;5091028;28;20196;-67
2021/07/27 04:37:47;;;;;;;12.38;9.02;;;22.30;99.90;;;;;;5082419;28;20205;-67
2021/07/27 04:40:15;;;;;;;9.40;8.50;;;22.30;99.90;;;;;;5091771;28;20694;-66
2021/07/27 04:42:44;;;;;;;9.75;8.85;;;22.40;99.90;;;;;;5108210;28;20306;-67
2021/07/27 04:45:11;;;;;;;11.20;8.65;;;22.50;99.90;;;;;;5107292;28;20220;-67
2021/07/27 04:47:39;;;;;;;10.43;9.32;;;22.50;99.90;;;;;;5107838;28;20203;-68
2021/07/27 04:50:08;;;;;;;13.10;9.68;;;22.60;99.90;;;;;;5104601;28;20204;-68
2021/07/27 04:52:35;;;;;;;12.85;9.88;;;22.60;99.90;;;;;;5110928;27;20212;-67
2021/07/27 04:55:02;;;;;;;9.82;8.55;;;22.70;99.90;;;;;;5103219;28;20227;-68
2021/07/27 04:57:29;;;;;;;10.68;8.35;;;22.80;99.90;;;;;;5088060;28;20670;-67
2021/07/27 04:59:55;;;;;;;9.77;8.73;;;22.80;99.90;;;;;;5102516;28;20622;-68
2021/07/27 05:02:23;;;;;;;10.18;8.95;;;22.90;99.90;;;;;;5078009;28;20730;-68
2021/07/27 05:04:51;;;;;;;9.50;8.60;;;23.00;99.90;;;;;;5102551;28;20753;-68
2021/07/27 05:07:18;;;;;;;10.05;8.88;;;23.00;99.90;;;;;;5087337;28;20495;-68
2021/07/27 05:09:45;;;;;;;8.82;7.63;;;23.10;99.90;;;;;;5092250;28;20196;-68
2021/07/27 05:12:12;;;;;;;8.52;7.70;;;23.20;99.90;;;;;;5102236;28;20198;-68
2021/07/27 05:14:38;;;;;;;10.40;8.65;;;23.30;99.90;;;;;;5087190;28;20198;-67
2021/07/27 05:17:09;;;;;;;9.05;8.15;;;23.40;99.90;;;;;;5096457;28;20515;-68
2021/07/27 05:19:37;;;;;;;13.85;8.43;;;23.50;99.90;;;;;;5081820;28;20220;-67
2021/07/27 05:22:05;;;;;;;11.05;9.05;;;23.60;99.90;;;;;;5095277;28;20261;-68
2021/07/27 05:24:32;;;;;;;9.35;8.45;;;23.70;99.90;;;;;;5082761;28;20541;-68
2021/07/27 05:26:59;;;;;;;9.85;8.80;;;23.80;99.90;;;;;;5084736;28;20228;-68
2021/07/27 05:29:26;;;;;;;9.63;8.73;;;23.90;99.90;;;;;;5079014;28;20292;-68
2021/07/27 05:31:53;;;;;;;8.93;7.88;;;23.90;99.90;;;;;;5069506;28;20203;-68
2021/07/27 05:34:19;;;;;;;8.85;7.97;;;24.00;99.90;;;;;;5078052;28;20201;-68
2021/07/27 05:36:46;;;;;;;9.95;8.20;;;24.10;99.90;;;;;;5091058;28;20215;-68
2021/07/27 05:39:15;;;;;;;9.90;8.02;;;24.30;99.90;;;;;;5080144;28;20207;-68
2021/07/27 05:41:42;;;;;;;8.05;7.25;;;24.30;99.90;;;;;;5100907;28;20698;-68
2021/07/27 05:44:09;;;;;;;7.70;6.75;;;24.40;99.90;;;;;;5107421;28;20563;-68
2021/07/27 05:46:35;;;;;;;9.15;7.15;;;24.50;99.90;;;;;;5099664;28;20192;-68
2021/07/27 05:49:04;;;;;;;7.82;6.82;;;24.70;99.90;;;;;;5107122;28;20561;-68
2021/07/27 05:51:31;;;;;;;7.15;6.43;;;24.90;99.90;;;;;;5101610;28;20547;-67
2021/07/27 05:53:58;;;;;;;8.02;7.32;;;25.10;99.90;;;;;;5105504;28;20226;-68
2021/07/27 05:56:26;;;;;;;9.90;8.90;;;25.20;99.90;;;;;;5102254;28;20200;-68
2021/07/27 05:58:54;;;;;;;9.20;8.20;;;25.20;99.90;;;;;;5081260;28;20200;-68
2021/07/27 06:01:21;;;;;;;8.05;7.35;;;25.30;99.90;;;;;;5077973;28;20224;-68
2021/07/27 06:03:48;;;;;;;11.50;9.52;;;25.50;99.90;;;;;;5076319;28;20590;-68
2021/07/27 06:06:15;;;;;;;8.30;7.55;;;25.80;99.90;;;;;;5098400;28;20192;-68
2021/07/27 06:08:41;;;;;;;8.63;7.18;;;26.30;99.90;;;;;;5101496;28;20659;-68
2021/07/27 06:11:09;;;;;;;11.07;9.98;;;27.00;99.90;;;;;;5097959;28;20204;-68
2021/07/27 06:13:37;;;;;;;8.73;7.93;;;27.60;99.90;;;;;;5092435;28;20831;-68
2021/07/27 06:16:05;;;;;;;9.43;8.48;;;28.30;99.90;;;;;;5057862;28;20656;-68
2021/07/27 06:18:32;;;;;;;9.55;8.52;;;29.10;99.90;;;;;;5075596;28;20209;-68
2021/07/27 06:20:59;;;;;;;9.70;8.43;;;29.90;99.90;;;;;;5077536;28;20196;-68
2021/07/27 06:23:27;;;;;;;8.88;8.07;;;30.10;99.90;;;;;;5088456;28;20192;-68
2021/07/27 06:25:54;;;;;;;7.90;7.20;;;30.00;99.90;;;;;;5073841;28;20215;-68
2021/07/27 06:28:20;;;;;;;8.15;7.40;;;29.90;99.90;;;;;;5081315;28;20648;-68
2021/07/27 06:30:49;;;;;;;10.30;8.50;;;30.10;99.90;;;;;;5091503;28;20428;-68
2021/07/27 06:33:16;;;;;;;9.80;8.80;;;30.10;99.90;;;;;;5072149;28;20183;-68
2021/07/27 06:35:42;;;;;;;8.40;7.70;;;30.00;99.90;;;;;;5058543;28;20197;-67
2021/07/27 06:38:09;;;;;;;10.30;9.27;;;29.90;99.90;;;;;;5090836;28;20254;-68
2021/07/27 06:40:36;;;;;;;9.65;8.75;;;29.90;99.90;;;;;;5086860;28;20235;-68
2021/07/27 06:43:04;;;;;;;9.30;8.40;;;30.00;99.90;;;;;;5082745;28;20215;-70
2021/07/27 06:45:31;;;;;;;11.27;9.23;;;30.10;99.90;;;;;;5087914;28;20207;-66
2021/07/27 06:47:59;;;;;;;9.80;8.80;;;29.90;99.90;;;;;;5080243;28;20454;-67
2021/07/27 06:50:28;;;;;;;8.35;7.55;;;29.60;99.90;;;;;;5084424;28;20214;-67
2021/07/27 06:52:55;;;;;;;12.90;9.68;;;29.50;99.90;;;;;;5087185;28;20224;-67
2021/07/27 06:55:22;;;;;;;10.82;8.85;;;29.20;99.90;;;;;;5090076;28;20208;-67
2021/07/27 06:57:48;;;;;;;9.52;8.55;;;28.90;99.90;;;;;;5091008;28;20275;-67
2021/07/27 07:00:16;;;;;;;8.32;7.63;;;28.80;99.90;;;;;;5089813;28;20199;-67
2021/07/27 07:02:43;;;;;;;10.38;9.32;;;28.60;99.90;;;;;;5081747;28;20224;-67
2021/07/27 07:05:12;;;;;;;11.07;9.45;;;28.70;99.90;;;;;;5092499;28;20196;-66
2021/07/27 07:07:39;;;;;;;10.18;9.18;;;28.70;99.90;;;;;;5080614;28;20184;-67
2021/07/27 07:10:07;;;;;;;11.32;9.60;;;28.70;99.90;;;;;;5095284;28;20597;-75
2021/07/27 07:12:34;;;;;;;10.10;9.10;;;28.80;99.90;;;;;;5091906;28;20208;-74
2021/07/27 07:15:01;;;;;;;16.13;9.07;;;29.10;99.90;;;;;;5089932;28;20197;-75
2021/07/27 07:17:28;;;;;;;10.05;9.05;;;29.40;99.90;;;;;;5086584;28;20205;-75
2021/07/27 07:19:55;;;;;;;9.70;8.70;;;29.40;99.90;;;;;;5079695;28;20203;-74
2021/07/27 07:22:24;;;;;;;8.95;8.00;;;29.40;99.90;;;;;;5105674;27;20207;-74
2021/07/27 07:24:51;;;;;;;9.18;8.13;;;29.30;99.90;;;;;;5088727;28;20199;-75
2021/07/27 07:27:18;;;;;;;9.93;7.78;;;29.40;99.90;;;;;;5088788;28;20197;-75
2021/07/27 07:29:45;;;;;;;7.70;6.95;;;29.40;99.90;;;;;;5074703;28;20201;-75
2021/07/27 07:32:12;;;;;;;8.27;7.40;;;29.50;99.90;;;;;;5073503;28;20563;-74
2021/07/27 07:34:39;;;;;;;8.90;7.55;;;29.80;99.90;;;;;;5086775;28;20246;-74
2021/07/27 07:37:06;;;;;;;9.35;7.60;;;30.00;99.90;;;;;;5093867;28;20525;-74
2021/07/27 07:39:35;;;;;;;9.02;8.23;;;30.50;99.90;;;;;;5090262;28;20220;-77
2021/07/27 07:42:03;;;;;;;9.18;8.30;;;31.30;99.90;;;;;;5086073;28;20223;-77
2021/07/27 07:44:30;;;;;;;9.00;8.07;;;31.60;99.90;;;;;;5091906;28;20200;-75
2021/07/27 07:46:58;;;;;;;9.18;8.27;;;31.70;99.90;;;;;;5090895;28;20211;-76
2021/07/27 07:49:25;;;;;;;8.95;7.75;;;31.80;99.90;;;;;;5092371;28;20521;-76
2021/07/27 07:51:52;;;;;;;11.43;8.75;;;31.90;99.90;;;;;;5087036;28;20196;-76
2021/07/27 07:54:19;;;;;;;9.90;8.38;;;32.20;99.90;;;;;;5073594;28;20397;-75
2021/07/27 07:56:48;;;;;;;8.60;7.38;;;32.50;99.90;;;;;;5097136;28;20260;-75
2021/07/27 07:59:15;;;;;;;9.07;8.27;;;32.70;99.90;;;;;;5112434;27;20204;-75
2021/07/27 08:01:45;;;;;;;8.25;7.55;;;32.80;99.90;;;;;;5088212;28;20675;-75
2021/07/27 08:04:12;;;;;;;8.38;7.60;;;33.00;99.90;;;;;;5077784;28;20188;-75
2021/07/27 08:06:39;;;;;;;7.78;7.07;;;33.20;99.90;;;;;;5075883;28;20211;-75
2021/07/27 08:09:06;;;;;;;7.28;6.68;;;33.30;99.90;;;;;;5091282;28;20197;-72
2021/07/27 08:11:33;;;;;;;7.53;6.93;;;33.30;99.90;;;;;;5067277;28;20696;-72
2021/07/27 08:14:01;;;;;;;6.75;6.25;;;33.20;99.70;;;;;;5100437;27;20687;-67
2021/07/27 08:16:28;;;;;;;9.10;8.10;;;33.00;99.70;;;;;;5088280;28;20254;-66
2021/07/27 08:18:55;;;;;;;7.63;6.93;;;32.90;99.30;;;;;;5077795;28;20211;-66
2021/07/27 08:21:23;;;;;;;9.38;8.55;;;33.00;99.40;;;;;;5091270;28;20204;-66
2021/07/27 08:23:50;;;;;;;8.05;7.28;;;33.20;98.80;;;;;;5092390;28;20241;-66
2021/07/27 08:26:17;;;;;;;7.43;6.82;;;33.50;98.40;;;;;;5083024;28;20561;-67
2021/07/27 08:28:46;;;;;;;6.60;6.20;;;33.80;97.80;;;;;;5092518;28;20203;-66
2021/07/27 08:31:14;;;;;;;7.95;7.25;;;33.90;97.20;;;;;;5090521;28;20204;-66
2021/07/27 08:33:41;;;;;;;6.22;5.72;;;34.00;96.20;;;;;;5072027;28;20280;-66
2021/07/27 08:36:08;;;;;;;5.90;5.50;;;33.80;96.10;;;;;;5083581;28;20204;-66
2021/07/27 08:38:36;;;;;;;6.22;5.72;;;33.70;96.00;;;;;;5089630;28;20201;-66
2021/07/27 08:41:05;;;;;;;6.68;6.15;;;33.70;96.00;;;;;;5088701;28;20232;-66
2021/07/27 08:43:32;;;;;;;8.18;7.38;;;33.50;95.30;;;;;;5090394;28;20565;-66
2021/07/27 08:46:00;;;;;;;8.85;8.05;;;33.40;94.80;;;;;;5093795;28;20232;-66
2021/07/27 08:48:30;;;;;;;7.80;7.10;;;33.60;94.10;;;;;;5085557;28;20960;-66
2021/07/27 08:50:58;;;;;;;6.15;5.75;;;33.90;94.20;;;;;;5089298;28;20204;-67
2021/07/27 08:53:25;;;;;;;6.90;6.40;;;34.30;93.30;;;;;;5083938;28;20193;-66
2021/07/27 08:55:52;;;;;;;7.38;6.78;;;34.60;92.80;;;;;;5094905;28;20199;-67
2021/07/27 08:58:19;;;;;;;6.38;5.97;;;34.80;92.30;;;;;;5083802;28;20550;-66
2021/07/27 09:00:46;;;;;;;6.10;5.70;;;34.90;91.90;;;;;;5065517;28;20672;-67
2021/07/27 09:03:16;;;;;;;5.65;5.25;;;35.00;91.60;;;;;;5091898;28;20208;-65
2021/07/27 09:05:44;;;;;;;6.07;5.68;;;34.90;91.40;;;;;;5094478;28;20605;-66
2021/07/27 09:08:13;;;;;;;5.55;5.25;;;34.70;91.40;;;;;;5080973;28;20279;-66
2021/07/27 09:10:42;;;;;;;6.80;6.22;;;34.50;91.40;;;;;;5091824;28;20281;-66
2021/07/27 09:13:10;;;;;;;7.25;6.75;;;34.70;91.10;;;;;;5090750;28;20188;-66
2021/07/27 09:15:39;;;;;;;5.90;5.50;;;35.10;90.50;;;;;;5096154;28;20203;-66
2021/07/27 09:18:08;;;;;;;6.30;5.90;;;36.00;89.70;;;;;;5085197;28;20283;-66
2021/07/27 09:20:39;;;;;;;6.97;6.47;;;36.90;86.70;;;;;;5088767;28;20217;-66
2021/07/27 09:23:13;;;;;;;7.07;6.57;;;38.10;82.80;;;;;;5091016;28;20227;-66
2021/07/27 09:25:44;;;;;;;7.03;6.43;;;39.30;78.40;;;;;;5084116;28;20207;-66
2021/07/27 09:28:12;;;;;;;7.80;7.10;;;40.30;74.40;;;;;;5091980;28;20219;-67
2021/07/27 09:30:42;;;;;;;8.93;8.27;;;40.50;70.80;;;;;;5086273;28;20211;-64
2021/07/27 09:33:10;;;;;;;8.02;7.43;;;39.90;69.30;;;;;;5088756;28;20207;-66
2021/07/27 09:35:39;;;;;;;9.23;8.52;;;39.00;70.00;;;;;;5088587;28;20195;-66
2021/07/27 09:38:09;;;;;;;8.85;7.95;;;38.10;71.00;;;;;;5090151;28;20214;-66
2021/07/27 09:40:38;;;;;;;8.77;7.97;;;37.30;72.60;;;;;;5093751;28;20310;-66
2021/07/27 09:43:05;;;;;;;8.07;7.38;;;36.60;74.00;;;;;;5091212;28;20564;-66
2021/07/27 09:45:33;;;;;;;6.82;6.32;;;36.60;74.60;;;;;;5088398;28;20211;-67
2021/07/27 09:48:01;;;;;;;8.07;7.47;;;37.50;73.80;;;;;;5091332;28;20203;-69
2021/07/27 09:50:28;;;;;;;8.07;7.45;;;38.90;71.10;;;;;;5090397;28;20318;-69
2021/07/27 09:52:54;;;;;;;7.20;6.70;;;40.50;67.80;;;;;;5070729;28;20309;-70
2021/07/27 09:55:23;;;;;;;7.45;6.85;;;42.00;64.40;;;;;;5088339;28;20539;-70
2021/07/27 09:57:52;;;;;;;7.18;6.47;;;43.40;60.70;;;;;;5097774;28;20196;-68
2021/07/27 10:00:19;;;;;;;7.22;6.63;;;44.30;57.70;;;;;;5088386;28;20191;-69
2021/07/27 10:02:48;;;;;;;7.13;6.63;;;44.30;56.10;;;;;;5081109;28;20325;-68
2021/07/27 10:05:22;;;;;;;8.45;7.82;;;44.00;55.80;;;;;;5101597;28;20567;-68
2021/07/27 10:07:56;;;;;;;9.32;8.52;;;43.60;54.90;;;;;;5086226;28;20199;-68
2021/07/27 10:10:37;;;;;;;7.97;7.38;;;43.40;54.40;;;;;;5093205;28;20203;-69
2021/07/27 10:13:12;;;;;;;10.35;9.45;;;43.20;54.20;;;;;;5097139;28;20206;-68
2021/07/27 10:15:43;;;;;;;8.73;8.00;;;43.00;52.90;;;;;;5092299;28;20228;-67
2021/07/27 10:18:11;;;;;;;7.90;7.35;;;42.80;53.30;;;;;;5090183;28;20207;-68
2021/07/27 10:20:39;;;;;;;7.45;6.95;;;42.80;53.40;;;;;;5092846;28;20567;-68
2021/07/27 10:23:20;;;;;;;8.18;7.57;;;42.90;53.30;;;;;;5083383;28;20211;-74
2021/07/27 10:25:59;;;;;;;9.45;8.65;;;43.00;51.80;;;;;;5063784;28;20766;-73
2021/07/27 10:28:27;;;;;;;10.63;9.63;;;43.50;50.30;;;;;;5075807;28;20785;-73
2021/07/27 10:31:05;;;;;;;9.90;8.95;;;44.10;48.40;;;;;;5088754;28;20219;-73
2021/07/27 10:33:33;;;;;;;8.63;8.00;;;44.70;46.60;;;;;;5093310;28;20203;-73
2021/07/27 10:36:00;;;;;;;9.25;8.45;;;45.20;45.20;;;;;;5086824;28;20199;-72
2021/07/27 10:38:37;;;;;;;8.95;8.13;;;45.70;43.60;;;;;;5077585;28;20199;-72
2021/07/27 10:41:16;;;;;;;8.27;7.68;;;46.20;42.00;;;;;;5091913;28;20224;-73
2021/07/27 10:43:44;;;;;;;8.27;7.57;;;46.80;40.90;;;;;;5078953;28;20706;-72
2021/07/27 10:46:11;;;;;;;8.15;7.45;;;47.30;39.60;;;;;;5100856;28;20196;-72
2021/07/27 10:48:39;;;;;;;10.07;9.27;;;47.90;38.60;;;;;;5093105;28;20202;-72
2021/07/27 10:51:07;;;;;;;9.98;9.07;;;48.50;37.10;;;;;;5093010;28;20203;-71
2021/07/27 10:53:35;;;;;;;9.18;8.32;;;49.00;36.40;;;;;;5095282;28;20200;-70
2021/07/27 10:56:04;;;;;;;8.52;7.93;;;49.20;35.70;;;;;;5081837;28;20206;-72
2021/07/27 10:58:34;;;;;;;8.50;7.70;;;49.50;35.20;;;;;;5097975;28;20233;-71
2021/07/27 11:01:11;;;;;;;8.98;8.27;;;49.50;34.70;;;;;;5069451;28;20253;-72
2021/07/27 11:03:40;;;;;;;8.88;7.97;;;49.60;34.10;;;;;;5097178;28;20250;-72
2021/07/27 11:06:08;;;;;;;7.68;7.15;;;49.70;34.20;;;;;;5076081;28;20240;-72
2021/07/27 11:08:35;;;;;;;8.10;7.50;;;49.80;33.80;;;;;;5068438;28;20707;-72
2021/07/27 11:11:10;;;;;;;7.97;7.45;;;49.80;33.70;;;;;;5076134;28;21474;-73
2021/07/27 11:13:38;;;;;;;8.82;8.02;;;49.90;33.40;;;;;;5089241;28;20183;-72
2021/07/27 11:16:06;;;;;;;9.90;9.10;;;50.20;32.90;;;;;;5091447;28;20281;-72
2021/07/27 11:18:33;;;;;;;9.13;8.32;;;50.40;32.20;;;;;;5087543;28;20223;-72
2021/07/27 11:21:01;;;;;;;9.02;8.23;;;50.60;32.00;;;;;;5088672;28;20203;-72
2021/07/27 11:23:34;;;;;;;8.48;7.88;;;50.80;31.80;;;;;;5092866;28;20200;-73
2021/07/27 11:26:01;;;;;;;8.25;7.65;;;50.80;31.50;;;;;;5094734;27;20204;-72
2021/07/27 11:28:36;;;;;;;8.10;7.50;;;50.80;31.20;;;;;;5070856;28;20200;-72
2021/07/27 11:31:04;;;;;;;9.52;8.73;;;50.80;30.30;;;;;;5075705;28;20667;-72
2021/07/27 11:33:31;;;;;;;10.05;8.93;;;50.80;29.90;;;;;;5072147;28;20707;-72
2021/07/27 11:36:00;;;;;;;8.82;8.13;;;50.80;29.70;;;;;;5090406;28;20215;-72
2021/07/27 11:38:29;;;;;;;8.27;7.72;;;50.80;29.60;;;;;;5093786;28;20195;-72
2021/07/27 11:41:05;;;;;;;9.57;8.68;;;49.70;30.00;;;;;;5103302;27;20404;-72
2021/07/27 11:43:33;;;;;;;9.98;9.02;;;48.00;30.60;;;;;;5072852;28;20203;-72
2021/07/27 11:46:08;;;;;;;9.38;8.68;;;46.60;32.00;;;;;;5098098;27;20655;-72
2021/07/27 11:48:36;;;;;;;8.52;7.93;;;45.70;33.00;;;;;;5095181;28;20260;-72
2021/07/27 11:51:03;;;;;;;9.32;8.63;;;46.10;33.00;;;;;;5088575;28;20203;-71
2021/07/27 11:53:32;;;;;;;8.93;8.23;;;46.50;32.60;;;;;;5087928;28;20214;-72
2021/07/27 11:56:10;;;;;;;8.82;8.23;;;46.60;32.60;;;;;;5079742;28;20297;-71
2021/07/27 11:58:37;;;;;;;8.90;8.13;;;46.80;32.70;;;;;;5068561;28;20559;-72
2021/07/27 12:01:05;;;;;;;13.00;10.65;;;47.30;32.50;;;;;;5083394;28;20207;-72
2021/07/27 12:03:32;;;;;;;12.00;11.00;;;46.60;32.80;;;;;;5073898;28;20697;-72
2021/07/27 12:06:09;;;;;;;12.98;11.57;;;45.00;34.70;;;;;;5093124;28;20202;-72
2021/07/27 12:08:36;;;;;;;14.70;12.27;;;43.20;37.00;;;;;;5065590;28;20196;-71
2021/07/27 12:11:04;;;;;;;19.02;12.60;;;41.80;38.80;;;;;;5090447;28;20538;-71
2021/07/27 12:13:31;;;;;;;22.95;12.65;;;40.80;40.00;;;;;;5071453;28;20733;-72
2021/07/27 12:15:59;;;;;;;14.40;12.13;;;39.80;41.40;;;;;;5100281;27;20212;-72
2021/07/27 12:18:27;;;;;;;18.38;12.00;;;38.70;42.70;;;;;;5092052;28;20531;-72
2021/07/27 12:20:54;;;;;;;13.75;11.15;;;37.70;44.10;;;;;;5084161;28;20625;-72
2021/07/27 12:23:21;;;;;;;15.93;10.57;;;36.80;45.30;;;;;;5083219;28;20572;-71
2021/07/27 12:25:48;;;;;;;11.85;10.10;;;36.20;46.30;;;;;;5079839;28;20814;-71
2021/07/27 12:28:15;;;;;;;13.15;10.75;;;35.60;46.50;;;;;;5072773;28;20196;-72
2021/07/27 12:30:42;;;;;;;11.60;9.30;;;35.10;46.40;;;;;;5081270;28;20196;-71
2021/07/27 12:33:11;;;;;;;9.93;9.02;;;34.70;46.70;;;;;;5071570;28;20682;-72
2021/07/27 12:35:39;;;;;;;12.65;9.23;;;34.40;47.00;;;;;;5066610;28;20207;-71
2021/07/27 12:38:06;;;;;;;10.80;7.80;;;34.10;47.50;;;;;;5087826;28;20195;-72
2021/07/27 12:40:33;;;;;;;8.68;6.60;;;33.80;48.00;;;;;;5096762;28;20277;-71
2021/07/27 12:43:00;;;;;;;7.53;6.55;;;33.40;48.50;;;;;;5088272;28;20206;-71
2021/07/27 12:45:27;;;;;;;6.97;6.28;;;33.20;49.00;;;;;;5096203;28;20211;-72
2021/07/27 12:47:55;;;;;;;5.85;5.28;;;33.10;49.50;;;;;;5082248;28;20218;-73
2021/07/27 12:50:22;;;;;;;6.35;5.68;;;32.70;49.80;;;;;;5070911;28;20667;-73
2021/07/27 12:52:50;;;;;;;9.15;6.00;;;32.60;50.30;;;;;;5092017;28;20220;-74
2021/07/27 12:55:17;;;;;;;9.48;5.47;;;32.40;50.70;;;;;;5097344;28;21040;-75
2021/07/27 12:57:44;;;;;;;6.00;5.40;;;32.20;50.90;;;;;;5102884;28;20192;-75
2021/07/27 13:00:12;;;;;;;6.60;4.90;;;32.00;51.10;;;;;;5088502;28;20197;-74
2021/07/27 13:02:39;;;;;;;7.47;5.10;;;31.80;50.90;;;;;;5090929;28;20280;-74
2021/07/27 13:05:06;;;;;;;7.68;5.18;;;31.70;51.10;;;;;;5079693;28;20192;-75
2021/07/27 13:07:34;;;;;;;6.53;4.75;;;31.60;51.30;;;;;;5070396;28;20208;-76
2021/07/27 13:10:04;;;;;;;9.43;5.95;;;31.50;51.60;;;;;;5093087;28;20656;-74